sensor_id;sensor_type;location;lat;lon;timestamp;temperature;humidity
43049;DHT22;28673;44.412;11.918;2024-02-21T00:00:53;6.70;99.90
43049;DHT22;28673;44.412;11.918;2024-02-21T00:03:20;6.70;99.90
43049;DHT22;28673;44.412;11.918;2024-02-21T00:05:46;6.70;99.90
43049;DHT22;28673;44.412;11.918;2024-02-21T00:08:11;6.70;99.90
43049;DHT22;28673;44.412;11.918;2024-02-21T00:10:38;6.70;99.90
43049;DHT22;28673;44.412;11.918;2024-02-21T00:13:03;6.70;99.90
43049;DHT22;28673;44.412;11.918;2024-02-21T00:15:29;6.70;99.90
43049;DHT22;28673;44.412;11.918;2024-02-21T00:17:55;6.70;99.90
43049;DHT22;28673;44.412;11.918;2024-02-21T00:20:21;6.70;99.90
43049;DHT22;28673;44.412;11.918;2024-02-21T00:22:46;6.60;99.90
43049;DHT22;28673;44.412;11.918;2024-02-21T00:25:12;6.60;99.90
43049;DHT22;28673;44.412;11.918;2024-02-21T00:27:38;6.60;99.90
43049;DHT22;28673;44.412;11.918;2024-02-21T00:30:07;6.60;99.90
43049;DHT22;28673;44.412;11.918;2024-02-21T00:32:33;6.50;99.90
43049;DHT22;28673;44.412;11.918;2024-02-21T00:35:00;6.50;99.90
43049;DHT22;28673;44.412;11.918;2024-02-21T00:37:27;6.50;99.90
43049;DHT22;28673;44.412;11.918;2024-02-21T00:39:53;6.50;99.90
43049;DHT22;28673;44.412;11.918;2024-02-21T00:42:19;6.50;99.90
43049;DHT22;28673;44.412;11.918;2024-02-21T00:44:45;6.50;99.90
43049;DHT22;28673;44.412;11.918;2024-02-21T00:47:11;6.40;99.90
43049;DHT22;28673;44.412;11.918;2024-02-21T00:49:36;6.40;99.90
43049;DHT22;28673;44.412;11.918;2024-02-21T00:52:02;6.40;99.90
43049;DHT22;28673;44.412;11.918;2024-02-21T00:54:28;6.40;99.90
43049;DHT22;28673;44.412;11.918;2024-02-21T00:56:54;6.30;99.90
43049;DHT22;28673;44.412;11.918;2024-02-21T00:59:19;6.30;99.90
43049;DHT22;28673;44.412;11.918;2024-02-21T01:01:45;6.20;99.90
43049;DHT22;28673;44.412;11.918;2024-02-21T01:04:11;6.30;99.90
43049;DHT22;28673;44.412;11.918;2024-02-21T01:06:37;6.20;99.90
43049;DHT22;28673;44.412;11.918;2024-02-21T01:09:03;6.20;99.90
43049;DHT22;28673;44.412;11.918;2024-02-21T01:11:29;6.20;99.90
43049;DHT22;28673;44.412;11.918;2024-02-21T01:13:55;6.20;99.90
43049;DHT22;28673;44.412;11.918;2024-02-21T01:16:21;6.20;99.90
43049;DHT22;28673;44.412;11.918;2024-02-21T01:18:47;6.20;99.90
43049;DHT22;28673;44.412;11.918;2024-02-21T01:21:12;6.10;99.90
43049;DHT22;28673;44.412;11.918;2024-02-21T01:23:38;6.20;99.90
43049;DHT22;28673;44.412;11.918;2024-02-21T01:26:04;6.10;99.90
43049;DHT22;28673;44.412;11.918;2024-02-21T01:28:30;6.10;99.90
43049;DHT22;28673;44.412;11.918;2024-02-21T01:30:57;6.10;99.90
43049;DHT22;28673;44.412;11.918;2024-02-21T01:33:22;6.10;99.90
43049;DHT22;28673;44.412;11.918;2024-02-21T01:35:51;6.10;99.90
43049;DHT22;28673;44.412;11.918;2024-02-21T01:38:18;6.10;99.90
43049;DHT22;28673;44.412;11.918;2024-02-21T01:40:43;6.00;99.90
43049;DHT22;28673;44.412;11.918;2024-02-21T01:43:17;6.00;99.90
43049;DHT22;28673;44.412;11.918;2024-02-21T01:45:45;6.00;99.90
43049;DHT22;28673;44.412;11.918;2024-02-21T01:48:12;6.00;99.90
43049;DHT22;28673;44.412;11.918;2024-02-21T01:50:38;6.00;99.90
43049;DHT22;28673;44.412;11.918;2024-02-21T01:53:04;6.00;99.90
43049;DHT22;28673;44.412;11.918;2024-02-21T01:55:31;6.00;99.90
43049;DHT22;28673;44.412;11.918;2024-02-21T01:57:56;5.90;99.90
43049;DHT22;28673;44.412;11.918;2024-02-21T02:00:23;5.90;99.90
43049;DHT22;28673;44.412;11.918;2024-02-21T02:02:49;5.90;99.90
43049;DHT22;28673;44.412;11.918;2024-02-21T02:05:16;5.90;99.90
43049;DHT22;28673;44.412;11.918;2024-02-21T02:07:44;5.80;99.90
43049;DHT22;28673;44.412;11.918;2024-02-21T02:10:09;5.80;99.90
43049;DHT22;28673;44.412;11.918;2024-02-21T02:12:36;5.80;99.90
43049;DHT22;28673;44.412;11.918;2024-02-21T02:15:03;5.80;99.90
43049;DHT22;28673;44.412;11.918;2024-02-21T02:17:30;5.80;99.90
43049;DHT22;28673;44.412;11.918;2024-02-21T02:19:56;5.80;99.90
43049;DHT22;28673;44.412;11.918;2024-02-21T02:22:27;5.70;99.90
43049;DHT22;28673;44.412;11.918;2024-02-21T02:24:53;5.70;99.90
43049;DHT22;28673;44.412;11.918;2024-02-21T02:27:19;5.70;99.90
43049;DHT22;28673;44.412;11.918;2024-02-21T02:29:45;5.60;99.90
43049;DHT22;28673;44.412;11.918;2024-02-21T02:32:11;5.60;99.90
43049;DHT22;28673;44.412;11.918;2024-02-21T02:34:37;5.60;99.90
43049;DHT22;28673;44.412;11.918;2024-02-21T02:37:03;5.60;99.90
43049;DHT22;28673;44.412;11.918;2024-02-21T02:39:29;5.60;99.90
43049;DHT22;28673;44.412;11.918;2024-02-21T02:41:54;5.60;99.90
43049;DHT22;28673;44.412;11.918;2024-02-21T02:44:20;5.60;99.90
43049;DHT22;28673;44.412;11.918;2024-02-21T02:46:46;5.60;99.90
43049;DHT22;28673;44.412;11.918;2024-02-21T02:49:11;5.60;99.90
43049;DHT22;28673;44.412;11.918;2024-02-21T02:51:41;5.60;99.90
43049;DHT22;28673;44.412;11.918;2024-02-21T02:54:07;5.70;99.90
43049;DHT22;28673;44.412;11.918;2024-02-21T02:56:33;5.70;99.90
43049;DHT22;28673;44.412;11.918;2024-02-21T02:58:59;5.70;99.90
43049;DHT22;28673;44.412;11.918;2024-02-21T03:01:25;5.70;99.90
43049;DHT22;28673;44.412;11.918;2024-02-21T03:03:50;5.70;99.90
43049;DHT22;28673;44.412;11.918;2024-02-21T03:06:16;5.70;99.90
43049;DHT22;28673;44.412;11.918;2024-02-21T03:08:45;5.70;99.90
43049;DHT22;28673;44.412;11.918;2024-02-21T03:11:10;5.70;99.90
43049;DHT22;28673;44.412;11.918;2024-02-21T03:13:36;5.70;99.90
43049;DHT22;28673;44.412;11.918;2024-02-21T03:16:02;5.70;99.90
43049;DHT22;28673;44.412;11.918;2024-02-21T03:18:28;5.70;99.90
43049;DHT22;28673;44.412;11.918;2024-02-21T03:20:54;5.70;99.90
43049;DHT22;28673;44.412;11.918;2024-02-21T03:23:19;5.60;99.90
43049;DHT22;28673;44.412;11.918;2024-02-21T03:25:45;5.60;99.90
43049;DHT22;28673;44.412;11.918;2024-02-21T03:28:11;5.60;99.90
43049;DHT22;28673;44.412;11.918;2024-02-21T03:30:37;5.60;99.90
43049;DHT22;28673;44.412;11.918;2024-02-21T03:33:03;5.50;99.90
43049;DHT22;28673;44.412;11.918;2024-02-21T03:35:29;5.50;99.90
43049;DHT22;28673;44.412;11.918;2024-02-21T03:37:55;5.50;99.90
43049;DHT22;28673;44.412;11.918;2024-02-21T03:40:20;5.50;99.90
43049;DHT22;28673;44.412;11.918;2024-02-21T03:42:46;5.50;99.90
43049;DHT22;28673;44.412;11.918;2024-02-21T03:45:12;5.50;99.90
43049;DHT22;28673;44.412;11.918;2024-02-21T03:47:38;5.40;99.90
43049;DHT22;28673;44.412;11.918;2024-02-21T03:50:05;5.40;99.90
43049;DHT22;28673;44.412;11.918;2024-02-21T03:52:31;5.30;99.90
43049;DHT22;28673;44.412;11.918;2024-02-21T03:55:00;5.30;99.90
43049;DHT22;28673;44.412;11.918;2024-02-21T03:57:26;5.30;99.90
43049;DHT22;28673;44.412;11.918;2024-02-21T03:59:51;5.30;99.90
43049;DHT22;28673;44.412;11.918;2024-02-21T04:02:18;5.30;99.90
43049;DHT22;28673;44.412;11.918;2024-02-21T04:04:44;5.30;99.90
43049;DHT22;28673;44.412;11.918;2024-02-21T04:07:16;5.20;99.90
43049;DHT22;28673;44.412;11.918;2024-02-21T04:09:42;5.20;99.90
43049;DHT22;28673;44.412;11.918;2024-02-21T04:12:08;5.20;99.90
43049;DHT22;28673;44.412;11.918;2024-02-21T04:14:34;5.20;99.90
43049;DHT22;28673;44.412;11.918;2024-02-21T04:17:00;5.10;99.90
43049;DHT22;28673;44.412;11.918;2024-02-21T04:19:26;5.10;99.90
43049;DHT22;28673;44.412;11.918;2024-02-21T04:21:52;5.10;99.90
43049;DHT22;28673;44.412;11.918;2024-02-21T04:24:18;5.10;99.90
43049;DHT22;28673;44.412;11.918;2024-02-21T04:26:43;5.10;99.90
43049;DHT22;28673;44.412;11.918;2024-02-21T04:29:09;5.10;99.90
43049;DHT22;28673;44.412;11.918;2024-02-21T04:31:35;5.00;99.90
43049;DHT22;28673;44.412;11.918;2024-02-21T04:34:01;5.00;99.90
43049;DHT22;28673;44.412;11.918;2024-02-21T04:36:28;5.00;99.90
43049;DHT22;28673;44.412;11.918;2024-02-21T04:38:54;5.00;99.90
43049;DHT22;28673;44.412;11.918;2024-02-21T04:41:20;5.00;99.90
43049;DHT22;28673;44.412;11.918;2024-02-21T04:43:46;5.00;99.90
43049;DHT22;28673;44.412;11.918;2024-02-21T04:46:13;4.90;99.90
43049;DHT22;28673;44.412;11.918;2024-02-21T04:48:39;4.90;99.90
43049;DHT22;28673;44.412;11.918;2024-02-21T04:51:04;4.90;99.90
43049;DHT22;28673;44.412;11.918;2024-02-21T04:53:30;4.90;99.90
43049;DHT22;28673;44.412;11.918;2024-02-21T04:55:56;4.80;99.90
43049;DHT22;28673;44.412;11.918;2024-02-21T04:58:21;4.80;99.90
43049;DHT22;28673;44.412;11.918;2024-02-21T05:00:47;4.80;99.90
43049;DHT22;28673;44.412;11.918;2024-02-21T05:03:13;4.80;99.90
43049;DHT22;28673;44.412;11.918;2024-02-21T05:05:39;4.70;99.90
43049;DHT22;28673;44.412;11.918;2024-02-21T05:08:05;4.70;99.90
43049;DHT22;28673;44.412;11.918;2024-02-21T05:10:30;4.70;99.90
43049;DHT22;28673;44.412;11.918;2024-02-21T05:12:57;4.70;99.90
43049;DHT22;28673;44.412;11.918;2024-02-21T05:15:23;4.70;99.90
43049;DHT22;28673;44.412;11.918;2024-02-21T05:17:48;4.60;99.90
43049;DHT22;28673;44.412;11.918;2024-02-21T05:20:14;4.60;99.90
43049;DHT22;28673;44.412;11.918;2024-02-21T05:22:40;4.60;99.90
43049;DHT22;28673;44.412;11.918;2024-02-21T05:25:06;4.60;99.90
43049;DHT22;28673;44.412;11.918;2024-02-21T05:27:32;4.60;99.90
43049;DHT22;28673;44.412;11.918;2024-02-21T05:29:58;4.60;99.90
43049;DHT22;28673;44.412;11.918;2024-02-21T05:32:24;4.60;99.90
43049;DHT22;28673;44.412;11.918;2024-02-21T05:34:50;4.60;99.90
43049;DHT22;28673;44.412;11.918;2024-02-21T05:37:16;4.60;99.90
43049;DHT22;28673;44.412;11.918;2024-02-21T05:39:42;4.50;99.90
43049;DHT22;28673;44.412;11.918;2024-02-21T05:42:08;4.50;99.90
43049;DHT22;28673;44.412;11.918;2024-02-21T05:44:33;4.50;99.90
43049;DHT22;28673;44.412;11.918;2024-02-21T05:46:59;4.50;99.90
43049;DHT22;28673;44.412;11.918;2024-02-21T05:49:25;4.50;99.90
43049;DHT22;28673;44.412;11.918;2024-02-21T05:51:50;4.50;99.90
43049;DHT22;28673;44.412;11.918;2024-02-21T05:54:16;4.50;99.90
43049;DHT22;28673;44.412;11.918;2024-02-21T05:56:46;4.40;99.90
43049;DHT22;28673;44.412;11.918;2024-02-21T05:59:12;4.40;99.90
43049;DHT22;28673;44.412;11.918;2024-02-21T06:01:38;4.40;99.90
43049;DHT22;28673;44.412;11.918;2024-02-21T06:04:04;4.40;99.90
43049;DHT22;28673;44.412;11.918;2024-02-21T06:06:30;4.40;99.90
43049;DHT22;28673;44.412;11.918;2024-02-21T06:08:56;4.40;99.90
43049;DHT22;28673;44.412;11.918;2024-02-21T06:11:22;4.40;99.90
43049;DHT22;28673;44.412;11.918;2024-02-21T06:13:48;4.40;99.90
43049;DHT22;28673;44.412;11.918;2024-02-21T06:16:14;4.40;99.90
43049;DHT22;28673;44.412;11.918;2024-02-21T06:18:39;4.30;99.90
43049;DHT22;28673;44.412;11.918;2024-02-21T06:21:05;4.30;99.90
43049;DHT22;28673;44.412;11.918;2024-02-21T06:23:31;4.30;99.90
43049;DHT22;28673;44.412;11.918;2024-02-21T06:25:57;4.30;99.90
43049;DHT22;28673;44.412;11.918;2024-02-21T06:28:23;4.30;99.90
43049;DHT22;28673;44.412;11.918;2024-02-21T06:30:49;4.30;99.90
43049;DHT22;28673;44.412;11.918;2024-02-21T06:33:14;4.30;99.90
43049;DHT22;28673;44.412;11.918;2024-02-21T06:35:40;4.40;99.90
43049;DHT22;28673;44.412;11.918;2024-02-21T06:38:08;4.30;99.90
43049;DHT22;28673;44.412;11.918;2024-02-21T06:40:34;4.40;99.90
43049;DHT22;28673;44.412;11.918;2024-02-21T06:43:04;4.30;99.90
43049;DHT22;28673;44.412;11.918;2024-02-21T06:45:30;4.40;99.90
43049;DHT22;28673;44.412;11.918;2024-02-21T06:47:56;4.40;99.90
43049;DHT22;28673;44.412;11.918;2024-02-21T06:50:22;4.40;99.90
43049;DHT22;28673;44.412;11.918;2024-02-21T06:52:48;4.40;99.90
43049;DHT22;28673;44.412;11.918;2024-02-21T06:55:13;4.40;99.90
43049;DHT22;28673;44.412;11.918;2024-02-21T06:57:39;4.40;99.90
43049;DHT22;28673;44.412;11.918;2024-02-21T07:00:05;4.50;99.90
43049;DHT22;28673;44.412;11.918;2024-02-21T07:02:34;4.50;99.90
43049;DHT22;28673;44.412;11.918;2024-02-21T07:04:59;4.50;99.90
43049;DHT22;28673;44.412;11.918;2024-02-21T07:07:25;4.50;99.90
43049;DHT22;28673;44.412;11.918;2024-02-21T07:09:51;4.50;99.90
43049;DHT22;28673;44.412;11.918;2024-02-21T07:12:18;4.50;99.90
43049;DHT22;28673;44.412;11.918;2024-02-21T07:14:44;4.60;99.90
43049;DHT22;28673;44.412;11.918;2024-02-21T07:17:13;4.60;99.90
43049;DHT22;28673;44.412;11.918;2024-02-21T07:19:39;4.60;99.90
43049;DHT22;28673;44.412;11.918;2024-02-21T07:22:05;4.70;99.90
43049;DHT22;28673;44.412;11.918;2024-02-21T07:24:30;4.80;99.90
43049;DHT22;28673;44.412;11.918;2024-02-21T07:26:57;4.80;99.90
43049;DHT22;28673;44.412;11.918;2024-02-21T07:29:23;4.90;99.90
43049;DHT22;28673;44.412;11.918;2024-02-21T07:31:48;4.90;99.90
43049;DHT22;28673;44.412;11.918;2024-02-21T07:34:14;5.00;99.90
43049;DHT22;28673;44.412;11.918;2024-02-21T07:36:40;5.10;99.90
43049;DHT22;28673;44.412;11.918;2024-02-21T07:39:08;5.20;99.90
43049;DHT22;28673;44.412;11.918;2024-02-21T07:41:33;5.30;99.90
43049;DHT22;28673;44.412;11.918;2024-02-21T07:44:00;5.30;99.90
43049;DHT22;28673;44.412;11.918;2024-02-21T07:46:26;5.40;99.90
43049;DHT22;28673;44.412;11.918;2024-02-21T07:48:51;5.50;99.90
43049;DHT22;28673;44.412;11.918;2024-02-21T07:51:17;5.60;99.90
43049;DHT22;28673;44.412;11.918;2024-02-21T07:53:44;5.70;99.90
43049;DHT22;28673;44.412;11.918;2024-02-21T07:56:14;5.80;99.90
43049;DHT22;28673;44.412;11.918;2024-02-21T07:58:41;5.80;99.90
43049;DHT22;28673;44.412;11.918;2024-02-21T08:01:08;6.00;99.90
43049;DHT22;28673;44.412;11.918;2024-02-21T08:03:33;6.00;99.90
43049;DHT22;28673;44.412;11.918;2024-02-21T08:05:59;6.20;99.90
43049;DHT22;28673;44.412;11.918;2024-02-21T08:08:25;6.30;99.90
43049;DHT22;28673;44.412;11.918;2024-02-21T08:10:52;6.30;99.90
43049;DHT22;28673;44.412;11.918;2024-02-21T08:13:17;6.50;99.90
43049;DHT22;28673;44.412;11.918;2024-02-21T08:15:43;6.60;99.90
43049;DHT22;28673;44.412;11.918;2024-02-21T08:18:09;6.70;99.90
43049;DHT22;28673;44.412;11.918;2024-02-21T08:20:35;6.80;99.90
43049;DHT22;28673;44.412;11.918;2024-02-21T08:23:01;7.00;99.90
43049;DHT22;28673;44.412;11.918;2024-02-21T08:25:27;7.10;99.90
43049;DHT22;28673;44.412;11.918;2024-02-21T08:27:58;7.30;99.90
43049;DHT22;28673;44.412;11.918;2024-02-21T08:30:24;7.40;99.90
43049;DHT22;28673;44.412;11.918;2024-02-21T08:32:50;7.60;99.90
43049;DHT22;28673;44.412;11.918;2024-02-21T08:35:16;7.60;99.90
43049;DHT22;28673;44.412;11.918;2024-02-21T08:37:44;7.80;99.90
43049;DHT22;28673;44.412;11.918;2024-02-21T08:40:15;8.00;99.90
43049;DHT22;28673;44.412;11.918;2024-02-21T08:42:47;8.00;99.90
43049;DHT22;28673;44.412;11.918;2024-02-21T08:45:13;8.20;99.90
43049;DHT22;28673;44.412;11.918;2024-02-21T08:47:42;8.30;99.90
43049;DHT22;28673;44.412;11.918;2024-02-21T08:50:08;8.40;99.90
43049;DHT22;28673;44.412;11.918;2024-02-21T08:52:37;8.50;99.90
43049;DHT22;28673;44.412;11.918;2024-02-21T08:55:03;8.70;99.90
43049;DHT22;28673;44.412;11.918;2024-02-21T08:57:29;8.80;99.90
43049;DHT22;28673;44.412;11.918;2024-02-21T08:59:54;8.90;99.90
43049;DHT22;28673;44.412;11.918;2024-02-21T09:02:20;9.00;99.90
43049;DHT22;28673;44.412;11.918;2024-02-21T09:04:46;9.10;99.90
43049;DHT22;28673;44.412;11.918;2024-02-21T09:07:11;9.30;99.90
43049;DHT22;28673;44.412;11.918;2024-02-21T09:09:37;9.40;99.90
43049;DHT22;28673;44.412;11.918;2024-02-21T09:12:06;9.50;99.90
43049;DHT22;28673;44.412;11.918;2024-02-21T09:14:33;9.60;99.90
43049;DHT22;28673;44.412;11.918;2024-02-21T09:16:59;9.70;99.90
43049;DHT22;28673;44.412;11.918;2024-02-21T09:19:25;9.80;99.90
43049;DHT22;28673;44.412;11.918;2024-02-21T09:21:51;9.90;99.90
43049;DHT22;28673;44.412;11.918;2024-02-21T09:24:17;10.10;99.90
43049;DHT22;28673;44.412;11.918;2024-02-21T09:26:43;10.20;99.90
43049;DHT22;28673;44.412;11.918;2024-02-21T09:29:09;10.30;99.90
43049;DHT22;28673;44.412;11.918;2024-02-21T09:31:35;10.40;99.90
43049;DHT22;28673;44.412;11.918;2024-02-21T09:34:01;10.50;99.90
43049;DHT22;28673;44.412;11.918;2024-02-21T09:36:27;10.60;99.90
43049;DHT22;28673;44.412;11.918;2024-02-21T09:38:53;10.80;99.90
43049;DHT22;28673;44.412;11.918;2024-02-21T09:41:27;11.00;99.90
43049;DHT22;28673;44.412;11.918;2024-02-21T09:43:56;11.20;99.90
43049;DHT22;28673;44.412;11.918;2024-02-21T09:46:40;11.50;99.90
43049;DHT22;28673;44.412;11.918;2024-02-21T09:51:43;12.10;99.90
43049;DHT22;28673;44.412;11.918;2024-02-21T09:54:10;12.30;99.90
43049;DHT22;28673;44.412;11.918;2024-02-21T09:56:36;12.50;99.90
43049;DHT22;28673;44.412;11.918;2024-02-21T09:59:03;12.80;99.90
43049;DHT22;28673;44.412;11.918;2024-02-21T10:01:31;13.00;99.90
43049;DHT22;28673;44.412;11.918;2024-02-21T10:03:57;13.30;99.90
43049;DHT22;28673;44.412;11.918;2024-02-21T10:06:23;13.50;99.90
43049;DHT22;28673;44.412;11.918;2024-02-21T10:08:53;13.70;99.90
43049;DHT22;28673;44.412;11.918;2024-02-21T10:11:25;14.00;99.90
43049;DHT22;28673;44.412;11.918;2024-02-21T10:14:02;14.20;99.90
43049;DHT22;28673;44.412;11.918;2024-02-21T10:16:29;14.40;99.90
43049;DHT22;28673;44.412;11.918;2024-02-21T10:18:54;14.70;99.90
43049;DHT22;28673;44.412;11.918;2024-02-21T10:21:22;14.90;99.90
43049;DHT22;28673;44.412;11.918;2024-02-21T10:23:49;15.10;99.90
43049;DHT22;28673;44.412;11.918;2024-02-21T10:26:17;15.30;99.90
43049;DHT22;28673;44.412;11.918;2024-02-21T10:28:43;15.50;99.90
43049;DHT22;28673;44.412;11.918;2024-02-21T10:31:11;15.70;99.90
43049;DHT22;28673;44.412;11.918;2024-02-21T10:34:02;15.90;99.90
43049;DHT22;28673;44.412;11.918;2024-02-21T10:36:31;16.20;99.90
43049;DHT22;28673;44.412;11.918;2024-02-21T10:39:00;16.40;99.90
43049;DHT22;28673;44.412;11.918;2024-02-21T10:41:26;16.60;99.90
43049;DHT22;28673;44.412;11.918;2024-02-21T10:43:54;16.90;99.90
43049;DHT22;28673;44.412;11.918;2024-02-21T10:46:22;17.30;99.90
43049;DHT22;28673;44.412;11.918;2024-02-21T10:49:03;17.40;99.90
43049;DHT22;28673;44.412;11.918;2024-02-21T10:51:33;17.50;99.90
43049;DHT22;28673;44.412;11.918;2024-02-21T10:56:38;17.80;99.90
43049;DHT22;28673;44.412;11.918;2024-02-21T10:59:07;17.90;99.90
43049;DHT22;28673;44.412;11.918;2024-02-21T11:01:33;18.20;99.90
43049;DHT22;28673;44.412;11.918;2024-02-21T11:04:08;18.40;99.90
43049;DHT22;28673;44.412;11.918;2024-02-21T11:06:36;18.50;99.60
43049;DHT22;28673;44.412;11.918;2024-02-21T11:09:10;18.60;99.40
43049;DHT22;28673;44.412;11.918;2024-02-21T11:11:41;18.80;99.00
43049;DHT22;28673;44.412;11.918;2024-02-21T11:14:21;18.90;98.90
43049;DHT22;28673;44.412;11.918;2024-02-21T11:16:47;19.00;98.00
43049;DHT22;28673;44.412;11.918;2024-02-21T11:19:21;19.10;98.20
43049;DHT22;28673;44.412;11.918;2024-02-21T11:21:47;19.20;97.60
43049;DHT22;28673;44.412;11.918;2024-02-21T11:24:34;19.30;96.10
43049;DHT22;28673;44.412;11.918;2024-02-21T11:27:15;19.20;96.10
43049;DHT22;28673;44.412;11.918;2024-02-21T11:29:47;19.30;97.20
43049;DHT22;28673;44.412;11.918;2024-02-21T11:32:17;19.30;95.30
43049;DHT22;28673;44.412;11.918;2024-02-21T11:34:54;19.40;97.10
43049;DHT22;28673;44.412;11.918;2024-02-21T11:37:20;19.50;96.80
43049;DHT22;28673;44.412;11.918;2024-02-21T11:39:46;19.70;96.90
43049;DHT22;28673;44.412;11.918;2024-02-21T11:42:12;19.90;96.20
43049;DHT22;28673;44.412;11.918;2024-02-21T11:44:38;19.90;96.30
43049;DHT22;28673;44.412;11.918;2024-02-21T11:47:06;20.00;95.50
43049;DHT22;28673;44.412;11.918;2024-02-21T11:49:43;20.10;95.40
43049;DHT22;28673;44.412;11.918;2024-02-21T11:52:11;20.10;95.40
43049;DHT22;28673;44.412;11.918;2024-02-21T11:54:37;20.30;95.10
43049;DHT22;28673;44.412;11.918;2024-02-21T11:57:02;20.60;94.40
43049;DHT22;28673;44.412;11.918;2024-02-21T11:59:30;20.70;94.60
43049;DHT22;28673;44.412;11.918;2024-02-21T12:02:01;20.70;94.30
43049;DHT22;28673;44.412;11.918;2024-02-21T12:04:29;20.70;93.60
43049;DHT22;28673;44.412;11.918;2024-02-21T12:06:57;20.80;93.70
43049;DHT22;28673;44.412;11.918;2024-02-21T12:09:24;20.80;92.00
43049;DHT22;28673;44.412;11.918;2024-02-21T12:12:01;20.70;92.70
43049;DHT22;28673;44.412;11.918;2024-02-21T12:14:29;20.80;92.90
43049;DHT22;28673;44.412;11.918;2024-02-21T12:16:56;20.90;93.10
43049;DHT22;28673;44.412;11.918;2024-02-21T12:19:22;20.90;92.20
43049;DHT22;28673;44.412;11.918;2024-02-21T12:21:50;20.90;91.80
43049;DHT22;28673;44.412;11.918;2024-02-21T12:24:22;20.80;92.00
43049;DHT22;28673;44.412;11.918;2024-02-21T12:26:51;20.70;91.90
43049;DHT22;28673;44.412;11.918;2024-02-21T12:29:20;20.70;92.30
43049;DHT22;28673;44.412;11.918;2024-02-21T12:31:47;20.70;92.30
43049;DHT22;28673;44.412;11.918;2024-02-21T12:34:13;20.70;91.30
43049;DHT22;28673;44.412;11.918;2024-02-21T12:36:45;20.70;91.80
43049;DHT22;28673;44.412;11.918;2024-02-21T12:39:14;20.70;91.60
43049;DHT22;28673;44.412;11.918;2024-02-21T12:41:41;21.00;92.00
43049;DHT22;28673;44.412;11.918;2024-02-21T12:44:08;21.20;91.30
43049;DHT22;28673;44.412;11.918;2024-02-21T12:46:34;21.30;91.40
43049;DHT22;28673;44.412;11.918;2024-02-21T12:49:04;21.30;91.00
43049;DHT22;28673;44.412;11.918;2024-02-21T12:51:31;21.30;91.30
43049;DHT22;28673;44.412;11.918;2024-02-21T12:53:57;21.30;91.50
43049;DHT22;28673;44.412;11.918;2024-02-21T12:56:23;21.20;90.50
43049;DHT22;28673;44.412;11.918;2024-02-21T12:58:53;21.10;90.80
43049;DHT22;28673;44.412;11.918;2024-02-21T13:01:19;21.20;90.50
43049;DHT22;28673;44.412;11.918;2024-02-21T13:03:45;21.30;90.40
43049;DHT22;28673;44.412;11.918;2024-02-21T13:06:12;21.20;90.10
43049;DHT22;28673;44.412;11.918;2024-02-21T13:08:38;21.30;90.40
43049;DHT22;28673;44.412;11.918;2024-02-21T13:11:05;21.30;90.10
43049;DHT22;28673;44.412;11.918;2024-02-21T13:13:31;21.30;90.30
43049;DHT22;28673;44.412;11.918;2024-02-21T13:16:00;21.40;90.20
43049;DHT22;28673;44.412;11.918;2024-02-21T13:18:26;21.30;88.30
43049;DHT22;28673;44.412;11.918;2024-02-21T13:20:51;21.10;87.90
43049;DHT22;28673;44.412;11.918;2024-02-21T13:23:17;21.00;89.30
43049;DHT22;28673;44.412;11.918;2024-02-21T13:25:43;20.90;88.90
43049;DHT22;28673;44.412;11.918;2024-02-21T13:28:12;20.90;89.60
43049;DHT22;28673;44.412;11.918;2024-02-21T13:30:39;20.90;89.00
43049;DHT22;28673;44.412;11.918;2024-02-21T13:33:07;20.90;89.70
43049;DHT22;28673;44.412;11.918;2024-02-21T13:35:34;20.90;90.00
43049;DHT22;28673;44.412;11.918;2024-02-21T13:38:02;21.00;90.20
43049;DHT22;28673;44.412;11.918;2024-02-21T13:40:28;21.10;90.10
43049;DHT22;28673;44.412;11.918;2024-02-21T13:42:54;21.20;89.40
43049;DHT22;28673;44.412;11.918;2024-02-21T13:45:20;21.00;90.10
43049;DHT22;28673;44.412;11.918;2024-02-21T13:47:46;20.90;89.80
43049;DHT22;28673;44.412;11.918;2024-02-21T13:50:11;20.70;89.80
43049;DHT22;28673;44.412;11.918;2024-02-21T13:52:42;20.50;90.30
43049;DHT22;28673;44.412;11.918;2024-02-21T13:55:08;20.30;90.10
43049;DHT22;28673;44.412;11.918;2024-02-21T13:57:37;20.20;90.30
43049;DHT22;28673;44.412;11.918;2024-02-21T14:00:04;20.20;90.60
43049;DHT22;28673;44.412;11.918;2024-02-21T14:02:37;20.20;90.50
43049;DHT22;28673;44.412;11.918;2024-02-21T14:05:05;20.20;90.40
43049;DHT22;28673;44.412;11.918;2024-02-21T14:07:32;20.20;90.30
43049;DHT22;28673;44.412;11.918;2024-02-21T14:09:59;20.30;90.60
43049;DHT22;28673;44.412;11.918;2024-02-21T14:12:35;20.50;90.40
43049;DHT22;28673;44.412;11.918;2024-02-21T14:15:12;20.60;89.70
43049;DHT22;28673;44.412;11.918;2024-02-21T14:17:37;20.70;89.90
43049;DHT22;28673;44.412;11.918;2024-02-21T14:20:05;20.80;89.60
43049;DHT22;28673;44.412;11.918;2024-02-21T14:22:31;20.80;88.80
43049;DHT22;28673;44.412;11.918;2024-02-21T14:24:57;20.90;88.60
43049;DHT22;28673;44.412;11.918;2024-02-21T14:27:23;20.90;88.90
43049;DHT22;28673;44.412;11.918;2024-02-21T14:29:48;20.90;89.20
43049;DHT22;28673;44.412;11.918;2024-02-21T14:32:14;20.80;89.10
43049;DHT22;28673;44.412;11.918;2024-02-21T14:34:40;20.90;89.60
43049;DHT22;28673;44.412;11.918;2024-02-21T14:37:07;20.90;88.90
43049;DHT22;28673;44.412;11.918;2024-02-21T14:39:32;20.80;88.50
43049;DHT22;28673;44.412;11.918;2024-02-21T14:42:01;20.90;89.20
43049;DHT22;28673;44.412;11.918;2024-02-21T14:44:27;20.90;88.40
43049;DHT22;28673;44.412;11.918;2024-02-21T14:46:53;21.00;89.10
43049;DHT22;28673;44.412;11.918;2024-02-21T14:49:18;21.00;89.60
43049;DHT22;28673;44.412;11.918;2024-02-21T14:51:45;20.90;89.50
43049;DHT22;28673;44.412;11.918;2024-02-21T14:54:10;20.70;90.10
43049;DHT22;28673;44.412;11.918;2024-02-21T14:56:36;20.50;90.50
43049;DHT22;28673;44.412;11.918;2024-02-21T14:59:02;20.40;90.60
43049;DHT22;28673;44.412;11.918;2024-02-21T15:01:29;20.20;91.00
43049;DHT22;28673;44.412;11.918;2024-02-21T15:03:55;20.00;90.90
43049;DHT22;28673;44.412;11.918;2024-02-21T15:06:21;19.90;91.20
43049;DHT22;28673;44.412;11.918;2024-02-21T15:08:49;19.80;91.30
43049;DHT22;28673;44.412;11.918;2024-02-21T15:11:16;19.60;91.60
43049;DHT22;28673;44.412;11.918;2024-02-21T15:13:43;19.50;91.80
43049;DHT22;28673;44.412;11.918;2024-02-21T15:16:09;19.40;91.80
43049;DHT22;28673;44.412;11.918;2024-02-21T15:18:34;19.40;92.00
43049;DHT22;28673;44.412;11.918;2024-02-21T15:21:04;19.30;92.00
43049;DHT22;28673;44.412;11.918;2024-02-21T15:23:30;19.10;92.00
43049;DHT22;28673;44.412;11.918;2024-02-21T15:25:55;18.90;92.20
43049;DHT22;28673;44.412;11.918;2024-02-21T15:28:21;18.70;92.30